sensor_id;sensor_type;location;lat;lon;timestamp;pressure;altitude;pressure_sealevel;temperature;humidity
55664;BME280;41540;57.880;12.164;2022-08-14T00:04:34;100284.16;;;14.53;nan
55664;BME280;41540;57.880;12.164;2022-08-14T00:14:37;100425.63;;;15.29;nan
55664;BME280;41540;57.880;12.164;2022-08-14T00:24:38;100504.66;;;15.63;nan
55664;BME280;41540;57.880;12.164;2022-08-14T00:34:38;100423.97;;;15.12;nan
55664;BME280;41540;57.880;12.164;2022-08-14T00:44:38;100443.09;;;15.11;nan
55664;BME280;41540;57.880;12.164;2022-08-14T00:54:40;100343.28;;;14.63;nan
55664;BME280;41540;57.880;12.164;2022-08-14T01:04:42;100340.66;;;14.60;nan
55664;BME280;41540;57.880;12.164;2022-08-14T01:14:43;100377.13;;;14.75;nan
55664;BME280;41540;57.880;12.164;2022-08-14T01:24:44;100439.63;;;15.09;nan
55664;BME280;41540;57.880;12.164;2022-08-14T01:34:52;100471.81;;;15.02;nan
55664;BME280;41540;57.880;12.164;2022-08-14T01:44:53;100456.25;;;14.65;nan
55664;BME280;41540;57.880;12.164;2022-08-14T01:54:54;100411.03;;;14.46;nan
55664;BME280;41540;57.880;12.164;2022-08-14T02:04:55;100299.88;;;13.76;nan
55664;BME280;41540;57.880;12.164;2022-08-14T02:14:55;100460.56;;;14.68;nan
55664;BME280;41540;57.880;12.164;2022-08-14T02:24:55;100428.41;;;14.39;nan
55664;BME280;41540;57.880;12.164;2022-08-14T02:34:56;100263.38;;;13.22;nan
55664;BME280;41540;57.880;12.164;2022-08-14T02:44:56;100379.72;;;13.75;nan
55664;BME280;41540;57.880;12.164;2022-08-14T02:54:57;100369.28;;;13.57;nan
55664;BME280;41540;57.880;12.164;2022-08-14T03:04:58;100384.09;;;14.04;nan
55664;BME280;41540;57.880;12.164;2022-08-14T03:15:03;100248.66;;;13.27;nan
55664;BME280;41540;57.880;12.164;2022-08-14T03:25:09;100217.41;;;13.10;nan
55664;BME280;41540;57.880;12.164;2022-08-14T03:35:11;100324.19;;;13.79;nan
55664;BME280;41540;57.880;12.164;2022-08-14T03:45:12;100399.72;;;14.46;nan
55664;BME280;41540;57.880;12.164;2022-08-14T03:55:13;100401.25;;;15.33;nan
55664;BME280;41540;57.880;12.164;2022-08-14T04:05:13;100171.34;;;16.44;nan
55664;BME280;41540;57.880;12.164;2022-08-14T04:15:14;100388.94;;;20.25;nan
55664;BME280;41540;57.880;12.164;2022-08-14T04:25:15;100466.50;;;22.60;nan
55664;BME280;41540;57.880;12.164;2022-08-14T04:35:16;100496.38;;;23.61;nan
55664;BME280;41540;57.880;12.164;2022-08-14T04:45:17;100436.78;;;21.40;nan
55664;BME280;41540;57.880;12.164;2022-08-14T04:55:17;100525.31;;;25.40;nan
55664;BME280;41540;57.880;12.164;2022-08-14T05:05:18;100278.88;;;26.43;nan
55664;BME280;41540;57.880;12.164;2022-08-14T05:15:19;100468.38;;;27.77;nan
55664;BME280;41540;57.880;12.164;2022-08-14T05:25:20;100429.59;;;26.91;nan
55664;BME280;41540;57.880;12.164;2022-08-14T05:35:21;100354.09;;;28.36;nan
55664;BME280;41540;57.880;12.164;2022-08-14T05:45:21;100331.16;;;23.49;nan
55664;BME280;41540;57.880;12.164;2022-08-14T05:55:21;100388.13;;;20.91;nan
55664;BME280;41540;57.880;12.164;2022-08-14T06:05:23;100398.56;;;20.62;nan
55664;BME280;41540;57.880;12.164;2022-08-14T06:15:25;100434.41;;;20.99;nan
55664;BME280;41540;57.880;12.164;2022-08-14T06:25:26;100427.00;;;21.14;nan
55664;BME280;41540;57.880;12.164;2022-08-14T06:35:26;100096.81;;;19.02;nan
55664;BME280;41540;57.880;12.164;2022-08-14T06:45:27;100403.44;;;21.08;nan
55664;BME280;41540;57.880;12.164;2022-08-14T06:55:28;100419.25;;;21.69;nan
55664;BME280;41540;57.880;12.164;2022-08-14T07:05:28;100404.53;;;21.61;nan
55664;BME280;41540;57.880;12.164;2022-08-14T07:16:02;100406.66;;;21.78;nan
55664;BME280;41540;57.880;12.164;2022-08-14T07:26:03;100290.03;;;21.42;nan
55664;BME280;41540;57.880;12.164;2022-08-14T07:36:06;100355.25;;;22.70;nan
55664;BME280;41540;57.880;12.164;2022-08-14T07:46:07;100386.44;;;25.43;nan
55664;BME280;41540;57.880;12.164;2022-08-14T07:56:08;100369.47;;;28.62;nan
55664;BME280;41540;57.880;12.164;2022-08-14T08:06:09;100385.03;;;31.38;nan
55664;BME280;41540;57.880;12.164;2022-08-14T08:16:10;100483.94;;;32.27;nan
55664;BME280;41540;57.880;12.164;2022-08-14T08:26:11;100545.59;;;32.75;nan
55664;BME280;41540;57.880;12.164;2022-08-14T08:36:11;100478.94;;;28.27;nan
55664;BME280;41540;57.880;12.164;2022-08-14T08:46:13;100508.25;;;28.11;nan
55664;BME280;41540;57.880;12.164;2022-08-14T08:56:14;100512.03;;;27.91;nan
55664;BME280;41540;57.880;12.164;2022-08-14T09:06:14;100505.13;;;27.71;nan
55664;BME280;41540;57.880;12.164;2022-08-14T09:16:18;100540.00;;;28.30;nan
55664;BME280;41540;57.880;12.164;2022-08-14T09:26:19;100523.25;;;28.28;nan
55664;BME280;41540;57.880;12.164;2022-08-14T09:46:29;100452.09;;;28.15;nan
55664;BME280;41540;57.880;12.164;2022-08-14T09:56:42;100358.56;;;28.06;nan
55664;BME280;41540;57.880;12.164;2022-08-14T10:06:43;100494.66;;;28.31;nan
55664;BME280;41540;57.880;12.164;2022-08-14T10:16:52;100440.41;;;27.54;nan
55664;BME280;41540;57.880;12.164;2022-08-14T10:26:55;100383.31;;;27.28;nan
55664;BME280;41540;57.880;12.164;2022-08-14T10:37:03;100469.66;;;28.94;nan
55664;BME280;41540;57.880;12.164;2022-08-14T10:47:06;100467.03;;;29.38;nan
55664;BME280;41540;57.880;12.164;2022-08-14T11:07:20;100452.78;;;28.49;nan
55664;BME280;41540;57.880;12.164;2022-08-14T11:17:21;100452.25;;;28.43;nan
55664;BME280;41540;57.880;12.164;2022-08-14T11:27:25;100295.50;;;27.76;nan
55664;BME280;41540;57.880;12.164;2022-08-14T11:37:26;100339.28;;;27.70;nan
55664;BME280;41540;57.880;12.164;2022-08-14T11:47:32;100459.81;;;28.81;nan
55664;BME280;41540;57.880;12.164;2022-08-14T11:57:32;100414.31;;;28.84;nan
55664;BME280;41540;57.880;12.164;2022-08-14T12:07:32;100336.25;;;28.67;nan
55664;BME280;41540;57.880;12.164;2022-08-14T12:17:46;100321.59;;;28.15;nan
55664;BME280;41540;57.880;12.164;2022-08-14T12:27:52;100386.22;;;28.64;nan
55664;BME280;41540;57.880;12.164;2022-08-14T12:37:54;100265.88;;;27.82;nan
55664;BME280;41540;57.880;12.164;2022-08-14T12:47:59;100319.56;;;28.49;nan
55664;BME280;41540;57.880;12.164;2022-08-14T12:58:00;100286.44;;;28.25;nan
55664;BME280;41540;57.880;12.164;2022-08-14T13:08:05;100325.78;;;28.78;nan
55664;BME280;41540;57.880;12.164;2022-08-14T13:18:07;100201.50;;;28.49;nan
55664;BME280;41540;57.880;12.164;2022-08-14T13:28:10;100245.72;;;28.37;nan
55664;BME280;41540;57.880;12.164;2022-08-14T13:38:11;100218.56;;;29.02;nan
55664;BME280;41540;57.880;12.164;2022-08-14T13:48:16;100227.25;;;28.77;nan
55664;BME280;41540;57.880;12.164;2022-08-14T13:58:19;100303.28;;;28.25;nan
55664;BME280;41540;57.880;12.164;2022-08-14T14:08:22;100155.44;;;28.75;nan
55664;BME280;41540;57.880;12.164;2022-08-14T14:18:24;100147.75;;;29.11;nan
55664;BME280;41540;57.880;12.164;2022-08-14T14:28:29;100162.78;;;28.99;nan
55664;BME280;41540;57.880;12.164;2022-08-14T14:38:32;100257.16;;;28.96;nan
55664;BME280;41540;57.880;12.164;2022-08-14T14:48:32;100236.25;;;29.03;nan
55664;BME280;41540;57.880;12.164;2022-08-14T14:58:35;100246.41;;;28.69;nan
55664;BME280;41540;57.880;12.164;2022-08-14T15:08:35;100131.25;;;27.03;nan
55664;BME280;41540;57.880;12.164;2022-08-14T15:18:38;100066.84;;;27.73;nan
55664;BME280;41540;57.880;12.164;2022-08-14T15:28:39;100196.59;;;28.84;nan
55664;BME280;41540;57.880;12.164;2022-08-14T15:38:39;100212.94;;;27.31;nan
55664;BME280;41540;57.880;12.164;2022-08-14T15:48:39;100172.81;;;27.20;nan
55664;BME280;41540;57.880;12.164;2022-08-14T15:58:40;100091.25;;;26.26;nan
55664;BME280;41540;57.880;12.164;2022-08-14T16:08:42;100091.91;;;25.98;nan
55664;BME280;41540;57.880;12.164;2022-08-14T16:18:43;100007.59;;;25.19;nan
55664;BME280;41540;57.880;12.164;2022-08-14T16:28:44;100024.38;;;25.02;nan
55664;BME280;41540;57.880;12.164;2022-08-14T16:38:45;99938.59;;;24.87;nan
55664;BME280;41540;57.880;12.164;2022-08-14T16:48:46;100027.34;;;25.48;nan
55664;BME280;41540;57.880;12.164;2022-08-14T16:58:47;100055.97;;;25.07;nan
55664;BME280;41540;57.880;12.164;2022-08-14T17:08:53;100067.66;;;24.66;nan
55664;BME280;41540;57.880;12.164;2022-08-14T17:18:56;100054.97;;;24.56;nan
55664;BME280;41540;57.880;12.164;2022-08-14T17:29:08;100094.94;;;24.30;nan
55664;BME280;41540;57.880;12.164;2022-08-14T17:39:14;100110.19;;;24.25;nan
55664;BME280;41540;57.880;12.164;2022-08-14T17:49:20;100067.50;;;23.54;nan
55664;BME280;41540;57.880;12.164;2022-08-14T17:59:22;100084.59;;;23.25;nan
55664;BME280;41540;57.880;12.164;2022-08-14T18:09:23;100074.94;;;22.81;nan
55664;BME280;41540;57.880;12.164;2022-08-14T18:19:25;100039.22;;;22.28;nan
55664;BME280;41540;57.880;12.164;2022-08-14T18:29:27;99995.38;;;21.78;nan
55664;BME280;41540;57.880;12.164;2022-08-14T18:39:33;99909.59;;;20.74;nan
55664;BME280;41540;57.880;12.164;2022-08-14T18:59:59;100122.28;;;21.42;nan
55664;BME280;41540;57.880;12.164;2022-08-14T19:10:05;100085.69;;;20.81;nan
55664;BME280;41540;57.880;12.164;2022-08-14T19:20:06;100125.56;;;20.68;nan
55664;BME280;41540;57.880;12.164;2022-08-14T19:40:32;100130.78;;;20.10;nan
55664;BME280;41540;57.880;12.164;2022-08-14T19:50:33;99946.00;;;19.14;nan
55664;BME280;41540;57.880;12.164;2022-08-14T20:00:34;100092.06;;;19.85;nan
55664;BME280;41540;57.880;12.164;2022-08-14T20:10:37;100069.09;;;19.59;nan
55664;BME280;41540;57.880;12.164;2022-08-14T20:20:39;100036.50;;;19.33;nan
55664;BME280;41540;57.880;12.164;2022-08-14T20:30:40;100048.84;;;19.29;nan
55664;BME280;41540;57.880;12.164;2022-08-14T20:40:51;100012.16;;;18.94;nan
55664;BME280;41540;57.880;12.164;2022-08-14T20:50:53;99853.16;;;17.80;nan
55664;BME280;41540;57.880;12.164;2022-08-14T21:01:00;99987.81;;;18.14;nan
55664;BME280;41540;57.880;12.164;2022-08-14T21:11:04;99972.06;;;18.15;nan
55664;BME280;41540;57.880;12.164;2022-08-14T21:21:07;99899.63;;;17.72;nan
55664;BME280;41540;57.880;12.164;2022-08-14T21:31:10;99900.03;;;17.94;nan
55664;BME280;41540;57.880;12.164;2022-08-14T21:41:13;99873.28;;;18.17;nan
55664;BME280;41540;57.880;12.164;2022-08-14T21:51:26;99752.94;;;17.36;nan
55664;BME280;41540;57.880;12.164;2022-08-14T22:01:27;99664.50;;;16.71;nan
55664;BME280;41540;57.880;12.164;2022-08-14T22:11:27;99831.13;;;17.50;nan
55664;BME280;41540;57.880;12.164;2022-08-14T22:21:28;99726.91;;;16.46;nan
55664;BME280;41540;57.880;12.164;2022-08-14T22:31:28;99776.69;;;17.27;nan
55664;BME280;41540;57.880;12.164;2022-08-14T22:41:30;99811.41;;;17.35;nan
55664;BME280;41540;57.880;12.164;2022-08-14T22:51:32;99815.06;;;17.28;nan
55664;BME280;41540;57.880;12.164;2022-08-14T23:11:37;99839.69;;;17.18;nan
55664;BME280;41540;57.880;12.164;2022-08-14T23:21:38;99735.81;;;16.81;nan
55664;BME280;41540;57.880;12.164;2022-08-14T23:31:40;99833.84;;;17.47;nan
55664;BME280;41540;57.880;12.164;2022-08-14T23:41:43;99763.97;;;17.10;nan
55664;BME280;41540;57.880;12.164;2022-08-14T23:51:47;99872.53;;;17.73;nan
